createdAt,value
2019-01-31T00:00:22.236Z,13.60
2019-01-31T00:03:32.479Z,11.30
2019-01-31T00:06:14.399Z,8.25
2019-01-31T00:09:21.997Z,13.15
2019-01-31T00:12:13.045Z,11.68
2019-01-31T00:14:49.948Z,10.72
2019-01-31T00:17:34.611Z,10.18
2019-01-31T00:20:30.030Z,10.10
2019-01-31T00:23:25.910Z,8.63
2019-01-31T00:26:27.023Z,10.60
2019-01-31T00:29:19.568Z,10.23
2019-01-31T00:32:17.345Z,12.65
2019-01-31T00:35:17.708Z,12.03
2019-01-31T00:38:36.909Z,12.28
2019-01-31T00:41:41.878Z,8.98
2019-01-31T00:44:53.454Z,8.33
2019-01-31T00:47:58.491Z,8.93
2019-01-31T00:50:58.950Z,10.03
2019-01-31T00:53:55.472Z,7.67
2019-01-31T00:57:23.832Z,10.13
2019-01-31T01:00:10.330Z,10.45
2019-01-31T01:02:59.595Z,8.05
2019-01-31T01:06:04.452Z,7.87
2019-01-31T01:09:07.887Z,9.63
2019-01-31T01:12:04.697Z,8.40
2019-01-31T01:14:55.847Z,5.83
2019-01-31T01:17:39.221Z,10.95
2019-01-31T01:20:55.972Z,8.15
2019-01-31T01:23:59.125Z,8.45
2019-01-31T01:27:30.617Z,6.83
2019-01-31T01:30:18.944Z,9.63
2019-01-31T01:33:16.974Z,10.78
2019-01-31T01:36:27.381Z,7.92
2019-01-31T01:39:26.484Z,4.70
2019-01-31T01:42:21.006Z,9.70
2019-01-31T01:45:26.292Z,7.62
2019-01-31T01:48:17.790Z,7.40
2019-01-31T01:51:07.289Z,7.05
2019-01-31T01:54:00.095Z,7.78
2019-01-31T01:56:57.107Z,7.03
2019-01-31T02:00:05.271Z,7.05
2019-01-31T02:03:16.067Z,5.15
2019-01-31T02:06:11.050Z,6.53
2019-01-31T02:09:30.066Z,6.90
2019-01-31T02:12:07.370Z,5.67
2019-01-31T02:15:32.863Z,7.97
2019-01-31T02:18:18.510Z,5.35
2019-01-31T02:21:33.764Z,4.97
2019-01-31T02:24:45.631Z,5.08
2019-01-31T02:28:17.096Z,4.12
2019-01-31T02:31:27.916Z,2.83
2019-01-31T02:34:59.173Z,6.53
2019-01-31T02:37:58.272Z,4.62
2019-01-31T02:41:23.059Z,7.80
2019-01-31T02:44:29.276Z,5.97
2019-01-31T02:47:57.442Z,6.62
2019-01-31T02:51:32.575Z,2.75
2019-01-31T02:54:22.459Z,5.00
2019-01-31T02:57:17.973Z,5.08
2019-01-31T03:00:14.488Z,5.22
2019-01-31T03:03:25.255Z,5.55
2019-01-31T03:06:50.701Z,5.42
2019-01-31T03:09:37.364Z,6.35
2019-01-31T03:12:47.668Z,5.60
2019-01-31T03:15:53.735Z,7.12
2019-01-31T03:18:39.990Z,5.00
2019-01-31T03:21:52.027Z,5.22
2019-01-31T03:24:58.387Z,6.10
2019-01-31T03:28:17.876Z,5.78
2019-01-31T03:31:24.130Z,2.55
2019-01-31T03:34:52.421Z,2.80
2019-01-31T03:37:50.533Z,4.97
2019-01-31T03:40:39.550Z,4.00
2019-01-31T03:43:40.785Z,5.67
2019-01-31T03:46:30.693Z,5.22
2019-01-31T03:49:42.972Z,3.47
2019-01-31T03:52:26.442Z,5.67
2019-01-31T03:55:34.023Z,5.33
2019-01-31T03:58:59.715Z,8.08
2019-01-31T04:02:05.843Z,5.33
2019-01-31T04:04:42.967Z,5.08
2019-01-31T04:07:12.558Z,4.75
2019-01-31T04:09:42.214Z,5.97
2019-01-31T04:12:12.086Z,7.75
2019-01-31T04:14:41.987Z,5.12
2019-01-31T04:17:11.631Z,5.30
2019-01-31T04:19:41.537Z,5.95
2019-01-31T04:22:11.398Z,5.60
2019-01-31T04:24:41.086Z,6.22
2019-01-31T04:27:11.091Z,6.12
2019-01-31T04:29:41.083Z,6.58
2019-01-31T04:32:10.845Z,6.28
2019-01-31T04:34:40.404Z,6.17
2019-01-31T04:37:10.357Z,6.05
2019-01-31T04:39:40.278Z,5.53
2019-01-31T04:42:10.170Z,6.62
2019-01-31T04:44:40.718Z,5.62
2019-01-31T04:47:10.546Z,5.20
2019-01-31T04:49:40.497Z,5.72
2019-01-31T04:52:10.674Z,7.95
2019-01-31T04:54:40.442Z,5.50
2019-01-31T04:57:11.068Z,5.90
2019-01-31T04:59:41.326Z,6.50
2019-01-31T05:02:11.408Z,7.10
2019-01-31T05:04:41.392Z,5.60
2019-01-31T05:07:11.515Z,7.12
2019-01-31T05:09:41.947Z,6.65
2019-01-31T05:12:14.117Z,6.10
2019-01-31T05:14:44.206Z,5.50
2019-01-31T05:17:14.117Z,5.15
2019-01-31T05:19:45.854Z,3.00
2019-01-31T05:22:15.296Z,5.58
2019-01-31T05:24:45.146Z,4.25
2019-01-31T05:27:15.011Z,7.75
2019-01-31T05:29:44.754Z,6.42
2019-01-31T05:32:14.385Z,7.22
2019-01-31T05:34:44.093Z,3.00
2019-01-31T05:37:13.880Z,5.90
2019-01-31T05:39:43.676Z,7.75
2019-01-31T05:42:13.219Z,3.42
2019-01-31T05:44:43.232Z,4.97
2019-01-31T05:47:13.005Z,8.40
2019-01-31T05:49:42.741Z,6.90
2019-01-31T05:52:12.994Z,8.13
2019-01-31T05:54:42.643Z,5.35
2019-01-31T05:57:12.469Z,7.97
2019-01-31T05:59:42.429Z,7.42
2019-01-31T06:02:14.264Z,4.70
2019-01-31T06:04:43.970Z,8.78
2019-01-31T06:07:14.811Z,6.35
2019-01-31T06:09:44.528Z,6.60
2019-01-31T06:12:14.077Z,5.60
2019-01-31T06:14:43.828Z,6.92
2019-01-31T06:17:13.555Z,3.05
2019-01-31T06:19:43.412Z,4.90
2019-01-31T06:22:13.106Z,6.67
2019-01-31T06:24:44.144Z,7.83
2019-01-31T06:27:13.835Z,4.37
2019-01-31T06:29:43.473Z,6.53
2019-01-31T06:32:13.119Z,7.58
2019-01-31T06:34:42.660Z,6.75
2019-01-31T06:37:12.448Z,7.20
2019-01-31T06:39:42.232Z,5.37
2019-01-31T06:42:13.665Z,7.42
2019-01-31T06:44:43.264Z,7.00
2019-01-31T06:47:13.077Z,6.70
2019-01-31T06:49:42.596Z,5.37
2019-01-31T06:52:12.987Z,6.08
2019-01-31T06:54:42.707Z,6.25
2019-01-31T06:57:12.568Z,7.33
2019-01-31T06:59:42.463Z,7.20
2019-01-31T07:02:12.228Z,22.95
2019-01-31T07:04:42.127Z,7.00
2019-01-31T07:07:11.977Z,6.78
2019-01-31T07:09:41.557Z,6.33
2019-01-31T07:12:11.466Z,5.08
2019-01-31T07:14:43.092Z,8.25
2019-01-31T07:17:12.693Z,8.55
2019-01-31T07:19:45.335Z,6.92
2019-01-31T07:22:14.925Z,7.60
2019-01-31T07:24:44.838Z,7.12
2019-01-31T07:27:14.553Z,9.73
2019-01-31T07:29:44.308Z,8.45
2019-01-31T07:32:14.028Z,9.68
2019-01-31T07:34:43.766Z,11.15
2019-01-31T07:37:13.338Z,4.60
2019-01-31T07:39:42.941Z,7.45
2019-01-31T07:42:12.673Z,7.83
2019-01-31T07:44:42.382Z,6.78
2019-01-31T07:47:12.289Z,13.58
2019-01-31T07:49:42.342Z,9.35
2019-01-31T07:52:12.092Z,12.55
2019-01-31T07:54:41.991Z,7.50
2019-01-31T07:57:11.670Z,9.83
2019-01-31T07:59:41.481Z,9.05
2019-01-31T08:02:12.395Z,6.58
2019-01-31T08:04:42.478Z,7.00
2019-01-31T08:07:12.336Z,8.25
2019-01-31T08:09:42.065Z,6.17
2019-01-31T08:12:12.121Z,5.40
2019-01-31T08:14:41.892Z,6.83
2019-01-31T08:17:11.548Z,6.05
2019-01-31T08:19:41.257Z,7.00
2019-01-31T08:22:11.243Z,5.67
2019-01-31T08:24:41.034Z,9.40
2019-01-31T08:27:10.775Z,6.95
2019-01-31T08:29:40.798Z,8.30
2019-01-31T08:32:10.301Z,6.42
2019-01-31T08:34:40.315Z,7.83
2019-01-31T08:37:10.201Z,5.92
2019-01-31T08:39:39.997Z,5.37
2019-01-31T08:42:09.630Z,8.50
2019-01-31T08:44:39.602Z,5.80
2019-01-31T08:47:09.677Z,5.40
2019-01-31T08:49:39.684Z,8.95
2019-01-31T08:52:10.744Z,7.42
2019-01-31T08:54:40.564Z,8.48
2019-01-31T08:57:10.402Z,7.25
2019-01-31T08:59:40.421Z,5.78
2019-01-31T09:02:12.449Z,9.20
2019-01-31T09:04:42.101Z,5.87
2019-01-31T09:07:12.063Z,9.28
2019-01-31T09:09:42.078Z,4.42
2019-01-31T09:12:15.296Z,6.65
2019-01-31T09:14:43.407Z,9.30
2019-01-31T09:17:13.046Z,5.73
2019-01-31T09:19:42.618Z,7.60
2019-01-31T09:22:40.890Z,9.08
2019-01-31T09:25:39.346Z,6.17
2019-01-31T09:28:56.114Z,8.10
2019-01-31T09:32:04.683Z,8.38
2019-01-31T09:35:04.985Z,7.63
2019-01-31T09:38:20.259Z,4.03
2019-01-31T09:41:20.001Z,5.77
2019-01-31T09:44:30.354Z,7.65
2019-01-31T09:47:58.674Z,7.50
2019-01-31T09:51:14.410Z,4.67
2019-01-31T09:54:25.343Z,7.83
2019-01-31T09:57:50.859Z,9.77
2019-01-31T10:01:25.592Z,8.20
2019-01-31T10:04:30.065Z,7.53
2019-01-31T10:07:16.537Z,8.97
2019-01-31T10:10:35.714Z,8.15
2019-01-31T10:14:16.360Z,9.85
2019-01-31T10:17:39.598Z,4.53
2019-01-31T10:20:36.282Z,9.63
2019-01-31T10:23:19.187Z,7.83
2019-01-31T10:26:34.111Z,9.70
2019-01-31T10:29:35.733Z,8.30
2019-01-31T10:32:51.914Z,9.20
2019-01-31T10:36:08.875Z,11.20
2019-01-31T10:39:05.420Z,9.73
2019-01-31T10:42:09.948Z,10.82
2019-01-31T10:45:10.473Z,10.70
2019-01-31T10:48:24.139Z,12.60
2019-01-31T10:51:29.100Z,10.35
2019-01-31T10:54:45.721Z,8.07
2019-01-31T10:57:45.542Z,8.23
2019-01-31T11:00:50.403Z,10.13
2019-01-31T11:03:58.199Z,8.70
2019-01-31T11:07:03.361Z,12.27
2019-01-31T11:09:54.975Z,11.20
2019-01-31T11:13:17.413Z,9.30
2019-01-31T11:16:23.102Z,6.20
2019-01-31T11:19:29.878Z,17.83
2019-01-31T11:23:01.474Z,7.87
2019-01-31T11:26:15.281Z,5.73
2019-01-31T11:29:15.920Z,9.27
2019-01-31T11:32:53.279Z,9.93
2019-01-31T11:35:43.778Z,13.00
2019-01-31T11:39:00.247Z,12.97
2019-01-31T11:42:02.463Z,6.43
2019-01-31T11:45:05.192Z,5.60
2019-01-31T11:48:01.125Z,10.23
2019-01-31T11:51:05.982Z,10.77
2019-01-31T11:54:01.949Z,8.90
2019-01-31T11:57:14.189Z,11.87
2019-01-31T11:59:43.859Z,7.07
2019-01-31T12:02:13.753Z,8.80
2019-01-31T12:04:43.427Z,9.73
2019-01-31T12:07:13.078Z,8.23
2019-01-31T12:09:42.794Z,11.87
2019-01-31T12:12:15.339Z,5.53
2019-01-31T12:14:44.931Z,9.07
2019-01-31T12:17:15.108Z,8.48
2019-01-31T12:19:44.916Z,5.57
2019-01-31T12:22:14.892Z,7.63
2019-01-31T12:24:44.721Z,9.73
2019-01-31T12:27:14.499Z,11.57
2019-01-31T12:29:44.262Z,12.23
2019-01-31T12:32:14.305Z,7.83
2019-01-31T12:34:43.982Z,8.57
2019-01-31T12:37:15.469Z,3.83
2019-01-31T12:39:44.952Z,11.43
2019-01-31T12:42:14.772Z,8.13
2019-01-31T12:44:44.375Z,6.80
2019-01-31T12:47:13.991Z,6.07
2019-01-31T12:49:43.744Z,9.40
2019-01-31T12:52:13.508Z,7.10
2019-01-31T12:54:44.577Z,8.73
2019-01-31T12:57:15.052Z,9.83
2019-01-31T12:59:44.980Z,10.67
2019-01-31T13:02:14.754Z,10.43
2019-01-31T13:04:44.808Z,16.07
2019-01-31T13:07:14.793Z,10.43
2019-01-31T13:09:44.518Z,10.60
2019-01-31T13:12:14.398Z,9.90
2019-01-31T13:14:44.242Z,8.53
2019-01-31T13:17:14.228Z,9.63
2019-01-31T13:19:44.114Z,8.07
2019-01-31T13:22:14.569Z,11.28
2019-01-31T13:24:44.246Z,9.10
2019-01-31T13:27:13.911Z,9.93
2019-01-31T13:29:43.654Z,13.60
2019-01-31T13:32:13.472Z,7.37
2019-01-31T13:34:43.320Z,9.27
2019-01-31T13:37:13.059Z,15.57
2019-01-31T13:39:42.801Z,5.70
2019-01-31T13:42:12.559Z,11.90
2019-01-31T13:44:42.535Z,8.07
2019-01-31T13:47:12.410Z,8.77
2019-01-31T13:49:42.535Z,7.90
2019-01-31T13:52:12.320Z,6.03
2019-01-31T13:54:42.103Z,15.23
2019-01-31T13:57:12.049Z,13.17
2019-01-31T13:59:42.301Z,13.70
2019-01-31T14:02:12.435Z,12.53
2019-01-31T14:04:42.342Z,5.70
2019-01-31T14:07:14.828Z,7.17
2019-01-31T14:09:44.539Z,12.63
2019-01-31T14:12:14.236Z,6.70
2019-01-31T14:14:44.867Z,11.83
2019-01-31T14:17:14.499Z,11.77
2019-01-31T14:19:44.689Z,16.63
2019-01-31T14:22:14.516Z,15.00
2019-01-31T14:24:44.090Z,14.50
2019-01-31T14:27:13.970Z,11.97
2019-01-31T14:29:43.767Z,10.90
2019-01-31T14:32:15.560Z,13.27
2019-01-31T14:34:45.254Z,9.63
2019-01-31T14:37:14.905Z,12.10
2019-01-31T14:39:44.628Z,18.33
2019-01-31T14:42:14.250Z,14.87
2019-01-31T14:44:43.990Z,13.23
2019-01-31T14:47:13.682Z,15.37
2019-01-31T14:49:43.394Z,20.07
2019-01-31T14:52:13.061Z,13.60
2019-01-31T14:54:42.961Z,13.07
2019-01-31T14:57:12.698Z,13.27
2019-01-31T14:59:42.450Z,14.00
2019-01-31T15:02:12.166Z,13.50
2019-01-31T15:04:42.256Z,12.10
2019-01-31T15:07:12.577Z,14.77
2019-01-31T15:09:42.906Z,13.00
2019-01-31T15:12:12.693Z,16.10
2019-01-31T15:14:42.616Z,13.33
2019-01-31T15:17:12.450Z,14.27
2019-01-31T15:19:42.360Z,13.50
2019-01-31T15:22:12.395Z,16.93
2019-01-31T15:24:42.437Z,15.70
2019-01-31T15:27:12.150Z,16.07
2019-01-31T15:29:42.114Z,12.87
2019-01-31T15:32:11.988Z,13.30
2019-01-31T15:34:41.837Z,12.13
2019-01-31T15:37:11.560Z,18.20
2019-01-31T15:39:41.974Z,15.20
2019-01-31T15:42:11.572Z,14.17
2019-01-31T15:44:43.500Z,14.13
2019-01-31T15:47:12.967Z,11.33
2019-01-31T15:49:42.902Z,12.90
2019-01-31T15:52:12.569Z,15.60
2019-01-31T15:54:42.478Z,14.80
2019-01-31T15:57:16.686Z,12.13
2019-01-31T15:59:43.670Z,14.37
2019-01-31T16:02:13.576Z,14.67
2019-01-31T16:04:43.694Z,9.53
2019-01-31T16:07:13.349Z,11.57
2019-01-31T16:09:43.073Z,15.40
2019-01-31T16:12:12.943Z,14.67
2019-01-31T16:14:42.512Z,8.93
2019-01-31T16:17:18.615Z,13.83
2019-01-31T16:19:48.467Z,12.53
2019-01-31T16:22:18.212Z,12.80
2019-01-31T16:24:48.013Z,15.07
2019-01-31T16:27:17.655Z,15.80
2019-01-31T16:29:47.260Z,9.73
2019-01-31T16:32:16.924Z,13.90
2019-01-31T16:34:46.785Z,14.50
2019-01-31T16:37:16.690Z,12.47
2019-01-31T16:39:46.482Z,14.30
2019-01-31T16:42:16.193Z,13.03
2019-01-31T16:44:45.906Z,13.30
2019-01-31T16:47:17.168Z,10.47
2019-01-31T16:49:47.120Z,12.13
2019-01-31T16:52:16.998Z,11.80
2019-01-31T16:54:46.918Z,12.50
2019-01-31T16:57:18.900Z,12.90
2019-01-31T16:59:48.514Z,13.80
2019-01-31T17:02:18.398Z,12.58
2019-01-31T17:04:48.440Z,13.67
2019-01-31T17:07:19.159Z,12.47
2019-01-31T17:09:50.606Z,20.13
2019-01-31T17:12:20.332Z,14.67
2019-01-31T17:14:50.037Z,15.60
2019-01-31T17:17:19.914Z,12.37
2019-01-31T17:19:49.854Z,14.13
2019-01-31T17:22:19.643Z,13.53
2019-01-31T17:24:49.532Z,14.13
2019-01-31T17:27:20.684Z,13.67
2019-01-31T17:29:50.644Z,13.27
2019-01-31T17:32:20.836Z,12.67
2019-01-31T17:34:50.800Z,13.80
2019-01-31T17:37:20.435Z,12.50
2019-01-31T17:39:50.728Z,13.93
2019-01-31T17:42:20.700Z,12.50
2019-01-31T17:44:50.276Z,12.47
2019-01-31T17:47:19.831Z,11.90
2019-01-31T17:49:50.052Z,11.27
2019-01-31T17:52:19.797Z,13.17
2019-01-31T17:54:49.640Z,12.90
2019-01-31T17:57:19.563Z,13.60
2019-01-31T17:59:52.600Z,13.40
2019-01-31T18:02:23.826Z,12.43
2019-01-31T18:04:53.855Z,13.27
2019-01-31T18:07:23.835Z,13.53
2019-01-31T18:09:53.583Z,11.97
2019-01-31T18:12:23.592Z,9.80
2019-01-31T18:14:53.560Z,12.13
2019-01-31T18:17:23.446Z,13.80
2019-01-31T18:19:53.324Z,11.00
2019-01-31T18:22:23.101Z,11.30
2019-01-31T18:24:52.766Z,14.03
2019-01-31T18:27:22.965Z,13.27
2019-01-31T18:29:53.120Z,10.73
2019-01-31T18:32:23.276Z,13.47
2019-01-31T18:34:53.390Z,11.30
2019-01-31T18:37:23.099Z,12.73
2019-01-31T18:39:53.009Z,13.37
2019-01-31T18:42:22.792Z,11.07
2019-01-31T18:44:52.444Z,11.77
2019-01-31T18:47:24.457Z,11.57
2019-01-31T18:49:55.815Z,12.43
2019-01-31T18:52:29.045Z,14.67
2019-01-31T18:54:58.764Z,10.90
2019-01-31T18:57:28.675Z,12.37
2019-01-31T18:59:58.497Z,15.20
2019-01-31T19:02:28.259Z,13.30
2019-01-31T19:04:59.187Z,11.73
2019-01-31T19:07:29.269Z,11.37
2019-01-31T19:10:00.036Z,14.40
2019-01-31T19:12:29.932Z,12.53
2019-01-31T19:14:59.879Z,15.00
2019-01-31T19:17:29.671Z,6.33
2019-01-31T19:20:01.610Z,12.47
2019-01-31T19:22:31.868Z,12.77
2019-01-31T19:25:01.607Z,13.30
2019-01-31T19:27:31.395Z,12.63
2019-01-31T19:30:01.232Z,11.53
2019-01-31T19:32:31.010Z,11.30
2019-01-31T19:35:00.863Z,11.23
2019-01-31T19:37:30.634Z,15.07
2019-01-31T19:40:00.584Z,13.47
2019-01-31T19:42:30.526Z,11.00
2019-01-31T19:45:00.362Z,13.80
2019-01-31T19:47:30.351Z,11.27
2019-01-31T19:50:00.523Z,11.90
2019-01-31T19:52:30.322Z,10.60
2019-01-31T19:55:00.339Z,11.37
2019-01-31T19:57:30.431Z,12.87
2019-01-31T20:00:00.310Z,10.97
2019-01-31T20:02:30.051Z,13.13
2019-01-31T20:04:59.743Z,13.67
2019-01-31T20:07:30.061Z,12.30
2019-01-31T20:09:59.815Z,12.40
2019-01-31T20:12:29.837Z,27.73
2019-01-31T20:14:59.592Z,21.87
2019-01-31T20:17:29.654Z,11.00
2019-01-31T20:19:59.489Z,11.63
2019-01-31T20:22:29.346Z,14.47
2019-01-31T20:24:59.224Z,11.30
2019-01-31T20:27:28.993Z,13.00
2019-01-31T20:29:58.849Z,11.20
2019-01-31T20:32:28.552Z,12.77
2019-01-31T20:34:58.473Z,14.43
2019-01-31T20:37:28.429Z,12.33
2019-01-31T20:39:58.429Z,11.33
2019-01-31T20:42:28.045Z,11.37
2019-01-31T20:44:57.973Z,12.77
2019-01-31T20:47:27.635Z,11.80
2019-01-31T20:49:57.211Z,11.57
2019-01-31T20:52:28.910Z,12.23
2019-01-31T20:54:58.718Z,11.83
2019-01-31T20:57:28.637Z,10.57
2019-01-31T20:59:58.324Z,14.27
2019-01-31T21:02:28.204Z,12.20
2019-01-31T21:04:58.091Z,12.93
2019-01-31T21:07:28.293Z,6.67
2019-01-31T21:09:59.711Z,10.90
2019-01-31T21:12:30.252Z,11.23
2019-01-31T21:15:00.318Z,11.37
2019-01-31T21:17:30.102Z,9.57
2019-01-31T21:19:59.735Z,10.27
2019-01-31T21:22:29.615Z,10.70
2019-01-31T21:24:59.288Z,10.63
2019-01-31T21:27:28.993Z,11.67
2019-01-31T21:29:58.697Z,10.33
2019-01-31T21:32:28.348Z,11.40
2019-01-31T21:34:57.951Z,11.63
2019-01-31T21:37:27.587Z,8.43
2019-01-31T21:39:57.485Z,11.07
2019-01-31T21:42:27.243Z,11.77
2019-01-31T21:44:56.929Z,13.70
2019-01-31T21:47:26.435Z,11.37
2019-01-31T21:49:56.139Z,11.83
2019-01-31T21:52:26.007Z,10.73
2019-01-31T21:54:57.192Z,10.80
2019-01-31T21:57:26.820Z,9.93
2019-01-31T21:59:56.470Z,11.97
2019-01-31T22:02:26.080Z,11.10
2019-01-31T22:04:55.804Z,12.77
2019-01-31T22:07:25.610Z,13.27
2019-01-31T22:09:55.420Z,13.80
2019-01-31T22:12:25.081Z,13.23
2019-01-31T22:14:54.723Z,11.10
2019-01-31T22:17:24.932Z,11.60
2019-01-31T22:19:54.638Z,13.53
2019-01-31T22:22:24.235Z,12.37
2019-01-31T22:24:54.203Z,13.10
2019-01-31T22:27:23.857Z,11.63
2019-01-31T22:29:53.566Z,13.87
2019-01-31T22:32:23.119Z,10.67
2019-01-31T22:34:52.887Z,12.23
2019-01-31T22:37:23.086Z,11.50
2019-01-31T22:39:52.740Z,11.50
2019-01-31T22:42:22.437Z,11.90
2019-01-31T22:44:52.038Z,13.03
2019-01-31T22:47:26.148Z,12.20
2019-01-31T22:49:52.976Z,11.10
2019-01-31T22:52:22.581Z,11.37
2019-01-31T22:54:52.276Z,13.13
2019-01-31T22:57:22.242Z,12.70
2019-01-31T22:59:51.744Z,12.67
2019-01-31T23:02:21.610Z,13.60
2019-01-31T23:04:51.300Z,12.70
2019-01-31T23:07:21.064Z,15.17
2019-01-31T23:09:50.744Z,11.80
2019-01-31T23:12:20.463Z,13.18
2019-01-31T23:14:51.567Z,11.40
2019-01-31T23:17:21.263Z,11.13
2019-01-31T23:19:50.827Z,12.27
2019-01-31T23:22:20.425Z,10.87
2019-01-31T23:24:50.087Z,9.30
2019-01-31T23:27:19.921Z,11.67
2019-01-31T23:29:49.558Z,11.10
2019-01-31T23:32:19.269Z,12.03
2019-01-31T23:34:48.982Z,10.80
2019-01-31T23:37:18.621Z,11.50
2019-01-31T23:39:48.426Z,11.37
2019-01-31T23:42:18.218Z,10.60
2019-01-31T23:44:48.261Z,11.07
2019-01-31T23:47:17.905Z,10.37
2019-01-31T23:49:47.632Z,9.90
2019-01-31T23:52:17.219Z,11.13
2019-01-31T23:54:46.907Z,11.30
2019-01-31T23:57:16.697Z,11.10
2019-01-31T23:59:46.739Z,11.65
